sensor_id;sensor_type;location;lat;lon;timestamp;temperature;humidity
46336;DHT22;31365;48.858;8.530;2023-02-11T00:01:29;0.00;99.90
46336;DHT22;31365;48.858;8.530;2023-02-11T00:03:59;0.00;99.90
46336;DHT22;31365;48.858;8.530;2023-02-11T00:06:30;0.00;99.90
46336;DHT22;31365;48.858;8.530;2023-02-11T00:09:00;0.10;99.90
46336;DHT22;31365;48.858;8.530;2023-02-11T00:11:29;0.10;99.90
46336;DHT22;31365;48.858;8.530;2023-02-11T00:13:58;0.10;99.90
46336;DHT22;31365;48.858;8.530;2023-02-11T00:16:29;0.10;99.90
46336;DHT22;31365;48.858;8.530;2023-02-11T00:18:59;0.10;99.90
46336;DHT22;31365;48.858;8.530;2023-02-11T00:21:28;0.10;99.90
46336;DHT22;31365;48.858;8.530;2023-02-11T00:23:57;0.20;99.90
46336;DHT22;31365;48.858;8.530;2023-02-11T00:26:30;0.10;99.90
46336;DHT22;31365;48.858;8.530;2023-02-11T00:29:00;0.10;99.90
46336;DHT22;31365;48.858;8.530;2023-02-11T00:31:32;0.10;99.90
46336;DHT22;31365;48.858;8.530;2023-02-11T00:34:01;0.00;99.90
46336;DHT22;31365;48.858;8.530;2023-02-11T00:36:29;0.00;99.90
46336;DHT22;31365;48.858;8.530;2023-02-11T00:38:58;0.00;99.90
46336;DHT22;31365;48.858;8.530;2023-02-11T00:41:28;0.00;99.90
46336;DHT22;31365;48.858;8.530;2023-02-11T00:43:58;0.00;99.90
46336;DHT22;31365;48.858;8.530;2023-02-11T00:46:27;0.00;99.90
46336;DHT22;31365;48.858;8.530;2023-02-11T00:48:57;-0.10;99.90
46336;DHT22;31365;48.858;8.530;2023-02-11T00:51:27;0.00;99.90
46336;DHT22;31365;48.858;8.530;2023-02-11T00:53:55;0.00;99.90
46336;DHT22;31365;48.858;8.530;2023-02-11T00:56:24;0.00;99.90
46336;DHT22;31365;48.858;8.530;2023-02-11T00:58:54;0.00;99.90
46336;DHT22;31365;48.858;8.530;2023-02-11T01:01:24;0.10;99.90
46336;DHT22;31365;48.858;8.530;2023-02-11T01:03:57;0.10;99.90
46336;DHT22;31365;48.858;8.530;2023-02-11T01:06:25;0.20;99.90
46336;DHT22;31365;48.858;8.530;2023-02-11T01:08:54;0.20;99.90
46336;DHT22;31365;48.858;8.530;2023-02-11T01:11:22;0.10;99.90
46336;DHT22;31365;48.858;8.530;2023-02-11T01:13:51;0.00;99.90
46336;DHT22;31365;48.858;8.530;2023-02-11T01:16:21;0.00;99.90
46336;DHT22;31365;48.858;8.530;2023-02-11T01:18:52;-0.10;99.90
46336;DHT22;31365;48.858;8.530;2023-02-11T01:21:22;-0.10;99.90
46336;DHT22;31365;48.858;8.530;2023-02-11T01:23:50;-0.10;99.90
46336;DHT22;31365;48.858;8.530;2023-02-11T01:26:19;-0.10;99.90
46336;DHT22;31365;48.858;8.530;2023-02-11T01:28:49;-0.10;99.90
46336;DHT22;31365;48.858;8.530;2023-02-11T01:31:17;-0.10;99.90
46336;DHT22;31365;48.858;8.530;2023-02-11T01:33:46;0.00;99.90
46336;DHT22;31365;48.858;8.530;2023-02-11T01:36:16;0.00;99.90
46336;DHT22;31365;48.858;8.530;2023-02-11T01:38:46;0.10;99.90
46336;DHT22;31365;48.858;8.530;2023-02-11T01:41:19;0.10;99.90
46336;DHT22;31365;48.858;8.530;2023-02-11T01:43:49;0.00;99.90
46336;DHT22;31365;48.858;8.530;2023-02-11T01:46:28;0.00;99.90
46336;DHT22;31365;48.858;8.530;2023-02-11T01:49:03;0.00;99.90
46336;DHT22;31365;48.858;8.530;2023-02-11T01:51:37;0.00;99.90
46336;DHT22;31365;48.858;8.530;2023-02-11T01:54:12;0.10;99.90
46336;DHT22;31365;48.858;8.530;2023-02-11T01:57:01;0.10;99.90
46336;DHT22;31365;48.858;8.530;2023-02-11T01:59:58;0.10;99.90
46336;DHT22;31365;48.858;8.530;2023-02-11T02:02:47;0.10;99.90
46336;DHT22;31365;48.858;8.530;2023-02-11T02:05:26;0.10;99.90
46336;DHT22;31365;48.858;8.530;2023-02-11T02:08:03;0.10;99.90
46336;DHT22;31365;48.858;8.530;2023-02-11T02:10:55;0.30;99.90
46336;DHT22;31365;48.858;8.530;2023-02-11T02:13:27;0.30;99.90
46336;DHT22;31365;48.858;8.530;2023-02-11T02:15:58;0.30;99.90
46336;DHT22;31365;48.858;8.530;2023-02-11T02:18:39;0.20;99.90
46336;DHT22;31365;48.858;8.530;2023-02-11T02:21:55;0.20;99.90
46336;DHT22;31365;48.858;8.530;2023-02-11T02:24:58;0.20;99.90
46336;DHT22;31365;48.858;8.530;2023-02-11T02:27:44;0.20;99.90
46336;DHT22;31365;48.858;8.530;2023-02-11T02:30:43;0.20;99.90
46336;DHT22;31365;48.858;8.530;2023-02-11T02:33:41;0.20;99.90
46336;DHT22;31365;48.858;8.530;2023-02-11T02:36:21;0.10;99.90
46336;DHT22;31365;48.858;8.530;2023-02-11T02:38:56;0.10;99.90
46336;DHT22;31365;48.858;8.530;2023-02-11T02:41:28;0.10;99.90
46336;DHT22;31365;48.858;8.530;2023-02-11T02:43:59;0.20;99.90
46336;DHT22;31365;48.858;8.530;2023-02-11T02:46:31;0.10;99.90
46336;DHT22;31365;48.858;8.530;2023-02-11T02:49:02;0.10;99.90
46336;DHT22;31365;48.858;8.530;2023-02-11T02:51:56;0.10;99.90
46336;DHT22;31365;48.858;8.530;2023-02-11T02:55:11;0.20;99.90
46336;DHT22;31365;48.858;8.530;2023-02-11T02:58:09;0.30;99.90
46336;DHT22;31365;48.858;8.530;2023-02-11T03:00:58;0.40;99.90
46336;DHT22;31365;48.858;8.530;2023-02-11T03:03:42;0.50;99.90
46336;DHT22;31365;48.858;8.530;2023-02-11T03:06:24;0.60;99.90
46336;DHT22;31365;48.858;8.530;2023-02-11T03:09:03;0.40;99.90
46336;DHT22;31365;48.858;8.530;2023-02-11T03:11:38;0.30;99.90
46336;DHT22;31365;48.858;8.530;2023-02-11T03:14:09;0.20;99.90
46336;DHT22;31365;48.858;8.530;2023-02-11T03:16:42;0.20;99.90
46336;DHT22;31365;48.858;8.530;2023-02-11T03:19:17;0.30;99.90
46336;DHT22;31365;48.858;8.530;2023-02-11T03:21:52;0.50;99.90
46336;DHT22;31365;48.858;8.530;2023-02-11T03:24:27;0.50;99.90
46336;DHT22;31365;48.858;8.530;2023-02-11T03:27:02;0.70;99.90
46336;DHT22;31365;48.858;8.530;2023-02-11T03:29:39;0.70;99.90
46336;DHT22;31365;48.858;8.530;2023-02-11T03:32:23;0.80;99.90
46336;DHT22;31365;48.858;8.530;2023-02-11T03:34:57;0.90;99.90
46336;DHT22;31365;48.858;8.530;2023-02-11T03:37:32;0.80;99.90
46336;DHT22;31365;48.858;8.530;2023-02-11T03:40:10;0.60;99.90
46336;DHT22;31365;48.858;8.530;2023-02-11T03:42:45;0.50;99.90
46336;DHT22;31365;48.858;8.530;2023-02-11T03:45:21;0.40;99.90
46336;DHT22;31365;48.858;8.530;2023-02-11T03:47:54;0.40;99.90
46336;DHT22;31365;48.858;8.530;2023-02-11T03:50:29;0.60;99.90
46336;DHT22;31365;48.858;8.530;2023-02-11T03:53:02;0.90;99.90
46336;DHT22;31365;48.858;8.530;2023-02-11T03:55:35;1.20;99.90
46336;DHT22;31365;48.858;8.530;2023-02-11T03:58:05;1.30;99.90
46336;DHT22;31365;48.858;8.530;2023-02-11T04:00:36;1.40;99.90
46336;DHT22;31365;48.858;8.530;2023-02-11T04:03:08;1.50;99.90
46336;DHT22;31365;48.858;8.530;2023-02-11T04:05:37;1.50;99.90
46336;DHT22;31365;48.858;8.530;2023-02-11T04:08:08;1.40;99.90
46336;DHT22;31365;48.858;8.530;2023-02-11T04:10:36;1.30;99.90
46336;DHT22;31365;48.858;8.530;2023-02-11T04:13:04;1.50;99.90
46336;DHT22;31365;48.858;8.530;2023-02-11T04:15:33;1.50;99.90
46336;DHT22;31365;48.858;8.530;2023-02-11T04:18:01;1.60;99.90
46336;DHT22;31365;48.858;8.530;2023-02-11T04:20:30;1.70;99.90
46336;DHT22;31365;48.858;8.530;2023-02-11T04:22:59;1.80;99.90
46336;DHT22;31365;48.858;8.530;2023-02-11T04:25:29;1.90;99.90
46336;DHT22;31365;48.858;8.530;2023-02-11T04:27:57;2.80;99.90
46336;DHT22;31365;48.858;8.530;2023-02-11T04:30:25;2.10;99.90
46336;DHT22;31365;48.858;8.530;2023-02-11T04:32:54;2.20;99.90
46336;DHT22;31365;48.858;8.530;2023-02-11T04:35:23;2.40;99.90
46336;DHT22;31365;48.858;8.530;2023-02-11T04:37:51;2.60;99.90
46336;DHT22;31365;48.858;8.530;2023-02-11T04:40:20;2.70;99.90
46336;DHT22;31365;48.858;8.530;2023-02-11T04:42:50;2.70;99.90
46336;DHT22;31365;48.858;8.530;2023-02-11T04:45:18;2.80;99.90
46336;DHT22;31365;48.858;8.530;2023-02-11T04:47:47;2.80;99.90
46336;DHT22;31365;48.858;8.530;2023-02-11T04:50:16;2.90;99.90
46336;DHT22;31365;48.858;8.530;2023-02-11T04:52:44;3.00;99.90
46336;DHT22;31365;48.858;8.530;2023-02-11T04:55:13;3.10;99.90
46336;DHT22;31365;48.858;8.530;2023-02-11T04:57:41;3.10;99.90
46336;DHT22;31365;48.858;8.530;2023-02-11T05:00:15;3.10;99.90
46336;DHT22;31365;48.858;8.530;2023-02-11T05:02:44;3.10;99.90
46336;DHT22;31365;48.858;8.530;2023-02-11T05:05:12;3.10;99.90
46336;DHT22;31365;48.858;8.530;2023-02-11T05:07:41;3.00;99.90
46336;DHT22;31365;48.858;8.530;2023-02-11T05:10:10;2.90;99.90
46336;DHT22;31365;48.858;8.530;2023-02-11T05:12:38;3.70;99.90
46336;DHT22;31365;48.858;8.530;2023-02-11T05:15:07;2.60;99.90
46336;DHT22;31365;48.858;8.530;2023-02-11T05:17:37;2.60;99.90
46336;DHT22;31365;48.858;8.530;2023-02-11T05:20:06;2.70;99.90
46336;DHT22;31365;48.858;8.530;2023-02-11T05:22:35;2.80;99.90
46336;DHT22;31365;48.858;8.530;2023-02-11T05:25:04;2.80;99.90
46336;DHT22;31365;48.858;8.530;2023-02-11T05:27:33;2.90;99.90
46336;DHT22;31365;48.858;8.530;2023-02-11T05:30:02;3.00;99.90
46336;DHT22;31365;48.858;8.530;2023-02-11T05:32:34;3.10;99.90
46336;DHT22;31365;48.858;8.530;2023-02-11T05:35:04;3.20;99.90
46336;DHT22;31365;48.858;8.530;2023-02-11T05:37:33;3.30;99.90
46336;DHT22;31365;48.858;8.530;2023-02-11T05:40:01;3.40;99.90
46336;DHT22;31365;48.858;8.530;2023-02-11T05:42:30;3.50;99.90
46336;DHT22;31365;48.858;8.530;2023-02-11T05:44:59;3.50;99.90
46336;DHT22;31365;48.858;8.530;2023-02-11T05:47:28;3.50;99.90
46336;DHT22;31365;48.858;8.530;2023-02-11T05:49:57;3.50;99.90
46336;DHT22;31365;48.858;8.530;2023-02-11T05:52:26;3.60;99.90
46336;DHT22;31365;48.858;8.530;2023-02-11T05:54:55;3.70;99.90
46336;DHT22;31365;48.858;8.530;2023-02-11T05:57:23;3.70;99.90
46336;DHT22;31365;48.858;8.530;2023-02-11T05:59:53;3.80;99.90
46336;DHT22;31365;48.858;8.530;2023-02-11T06:02:22;3.90;99.90
46336;DHT22;31365;48.858;8.530;2023-02-11T06:04:51;3.90;99.90
46336;DHT22;31365;48.858;8.530;2023-02-11T06:07:21;4.00;99.90
46336;DHT22;31365;48.858;8.530;2023-02-11T06:10:08;3.90;99.90
46336;DHT22;31365;48.858;8.530;2023-02-11T06:12:40;3.70;99.90
46336;DHT22;31365;48.858;8.530;2023-02-11T06:15:11;3.50;99.90
46336;DHT22;31365;48.858;8.530;2023-02-11T06:17:40;3.50;99.90
46336;DHT22;31365;48.858;8.530;2023-02-11T06:20:10;3.60;99.90
46336;DHT22;31365;48.858;8.530;2023-02-11T06:22:39;3.60;99.90
46336;DHT22;31365;48.858;8.530;2023-02-11T06:35:50;3.50;99.90
46336;DHT22;31365;48.858;8.530;2023-02-11T07:07:23;3.70;99.90
46336;DHT22;31365;48.858;8.530;2023-02-11T07:14:30;3.90;99.90
46336;DHT22;31365;48.858;8.530;2023-02-11T07:16:58;4.00;99.90
46336;DHT22;31365;48.858;8.530;2023-02-11T07:19:26;3.90;99.90
46336;DHT22;31365;48.858;8.530;2023-02-11T07:21:55;4.00;99.90
46336;DHT22;31365;48.858;8.530;2023-02-11T07:24:25;4.00;99.90
46336;DHT22;31365;48.858;8.530;2023-02-11T07:26:54;4.10;99.90
46336;DHT22;31365;48.858;8.530;2023-02-11T07:29:22;4.10;99.90
46336;DHT22;31365;48.858;8.530;2023-02-11T07:31:51;4.30;99.90
46336;DHT22;31365;48.858;8.530;2023-02-11T07:34:19;4.40;99.90
46336;DHT22;31365;48.858;8.530;2023-02-11T07:36:48;4.50;99.90
46336;DHT22;31365;48.858;8.530;2023-02-11T07:39:17;4.60;99.90
46336;DHT22;31365;48.858;8.530;2023-02-11T07:41:47;4.60;99.90
46336;DHT22;31365;48.858;8.530;2023-02-11T07:44:15;4.50;99.90
46336;DHT22;31365;48.858;8.530;2023-02-11T07:46:44;4.60;99.90
46336;DHT22;31365;48.858;8.530;2023-02-11T07:49:16;4.70;99.90
46336;DHT22;31365;48.858;8.530;2023-02-11T07:51:44;4.70;99.90
46336;DHT22;31365;48.858;8.530;2023-02-11T07:54:14;4.80;99.90
46336;DHT22;31365;48.858;8.530;2023-02-11T07:56:43;4.80;99.90
46336;DHT22;31365;48.858;8.530;2023-02-11T07:59:12;4.70;99.90
46336;DHT22;31365;48.858;8.530;2023-02-11T08:01:41;4.70;99.90
46336;DHT22;31365;48.858;8.530;2023-02-11T08:04:09;4.70;99.90
46336;DHT22;31365;48.858;8.530;2023-02-11T08:06:40;4.80;99.90
46336;DHT22;31365;48.858;8.530;2023-02-11T08:09:14;4.90;99.90
46336;DHT22;31365;48.858;8.530;2023-02-11T08:11:44;5.00;99.90
46336;DHT22;31365;48.858;8.530;2023-02-11T08:14:13;5.00;99.90
46336;DHT22;31365;48.858;8.530;2023-02-11T08:16:42;5.10;99.90
46336;DHT22;31365;48.858;8.530;2023-02-11T08:19:13;5.10;99.90
46336;DHT22;31365;48.858;8.530;2023-02-11T08:21:43;5.20;99.90
46336;DHT22;31365;48.858;8.530;2023-02-11T08:24:11;5.30;99.90
46336;DHT22;31365;48.858;8.530;2023-02-11T08:26:41;5.40;99.90
46336;DHT22;31365;48.858;8.530;2023-02-11T08:29:12;5.40;99.90
46336;DHT22;31365;48.858;8.530;2023-02-11T08:31:44;5.40;99.90
46336;DHT22;31365;48.858;8.530;2023-02-11T08:34:14;5.40;99.90
46336;DHT22;31365;48.858;8.530;2023-02-11T08:36:46;5.50;99.90
46336;DHT22;31365;48.858;8.530;2023-02-11T08:39:17;5.60;99.90
46336;DHT22;31365;48.858;8.530;2023-02-11T08:41:48;5.70;99.90
46336;DHT22;31365;48.858;8.530;2023-02-11T08:44:19;5.70;99.90
46336;DHT22;31365;48.858;8.530;2023-02-11T08:46:49;5.90;99.90
46336;DHT22;31365;48.858;8.530;2023-02-11T08:49:18;6.10;99.90
46336;DHT22;31365;48.858;8.530;2023-02-11T08:51:47;6.20;99.90
46336;DHT22;31365;48.858;8.530;2023-02-11T08:54:20;6.20;99.90
46336;DHT22;31365;48.858;8.530;2023-02-11T08:56:50;6.30;99.90
46336;DHT22;31365;48.858;8.530;2023-02-11T08:59:20;6.30;99.90
46336;DHT22;31365;48.858;8.530;2023-02-11T09:01:48;6.30;99.90
46336;DHT22;31365;48.858;8.530;2023-02-11T09:04:17;6.30;99.90
46336;DHT22;31365;48.858;8.530;2023-02-11T09:06:45;6.40;99.90
46336;DHT22;31365;48.858;8.530;2023-02-11T09:09:15;6.50;99.90
46336;DHT22;31365;48.858;8.530;2023-02-11T09:11:44;6.60;99.90
46336;DHT22;31365;48.858;8.530;2023-02-11T09:14:18;6.70;99.90
46336;DHT22;31365;48.858;8.530;2023-02-11T09:16:50;6.80;99.90
46336;DHT22;31365;48.858;8.530;2023-02-11T09:19:19;6.80;99.90
46336;DHT22;31365;48.858;8.530;2023-02-11T09:21:48;6.80;99.90
46336;DHT22;31365;48.858;8.530;2023-02-11T09:24:17;6.70;99.90
46336;DHT22;31365;48.858;8.530;2023-02-11T09:26:45;6.70;99.90
46336;DHT22;31365;48.858;8.530;2023-02-11T09:29:13;6.70;99.90
46336;DHT22;31365;48.858;8.530;2023-02-11T09:31:43;6.70;99.90
46336;DHT22;31365;48.858;8.530;2023-02-11T09:34:11;6.70;99.90
46336;DHT22;31365;48.858;8.530;2023-02-11T09:36:41;6.50;99.90
46336;DHT22;31365;48.858;8.530;2023-02-11T09:39:11;6.50;99.90
46336;DHT22;31365;48.858;8.530;2023-02-11T09:44:57;6.50;99.90
46336;DHT22;31365;48.858;8.530;2023-02-11T09:47:31;6.50;99.90
46336;DHT22;31365;48.858;8.530;2023-02-11T09:50:04;6.50;99.90
46336;DHT22;31365;48.858;8.530;2023-02-11T09:52:42;6.50;99.90
46336;DHT22;31365;48.858;8.530;2023-02-11T09:55:20;6.50;99.90
46336;DHT22;31365;48.858;8.530;2023-02-11T09:57:49;6.50;99.90
46336;DHT22;31365;48.858;8.530;2023-02-11T10:00:22;6.50;99.90
46336;DHT22;31365;48.858;8.530;2023-02-11T10:03:11;6.60;99.90
46336;DHT22;31365;48.858;8.530;2023-02-11T10:06:13;6.70;99.90
46336;DHT22;31365;48.858;8.530;2023-02-11T10:08:57;7.00;99.90
46336;DHT22;31365;48.858;8.530;2023-02-11T10:11:40;7.20;99.90
46336;DHT22;31365;48.858;8.530;2023-02-11T10:14:32;7.30;99.90
46336;DHT22;31365;48.858;8.530;2023-02-11T10:17:17;7.40;99.90
46336;DHT22;31365;48.858;8.530;2023-02-11T10:20:06;7.40;99.90
46336;DHT22;31365;48.858;8.530;2023-02-11T10:22:48;7.50;99.90
46336;DHT22;31365;48.858;8.530;2023-02-11T10:25:23;7.70;99.90
46336;DHT22;31365;48.858;8.530;2023-02-11T10:27:54;7.90;99.90
46336;DHT22;31365;48.858;8.530;2023-02-11T10:30:30;8.00;99.90
46336;DHT22;31365;48.858;8.530;2023-02-11T10:33:09;8.10;99.90
46336;DHT22;31365;48.858;8.530;2023-02-11T10:35:45;8.30;99.90
46336;DHT22;31365;48.858;8.530;2023-02-11T10:38:14;8.40;99.90
46336;DHT22;31365;48.858;8.530;2023-02-11T10:40:42;8.30;99.90
46336;DHT22;31365;48.858;8.530;2023-02-11T10:43:13;8.10;99.90
46336;DHT22;31365;48.858;8.530;2023-02-11T10:45:45;8.00;99.90
46336;DHT22;31365;48.858;8.530;2023-02-11T10:48:35;8.20;99.90
46336;DHT22;31365;48.858;8.530;2023-02-11T10:51:17;8.40;99.90
46336;DHT22;31365;48.858;8.530;2023-02-11T10:53:49;8.60;99.90
46336;DHT22;31365;48.858;8.530;2023-02-11T10:56:43;8.90;99.90
46336;DHT22;31365;48.858;8.530;2023-02-11T10:59:18;9.10;99.90
46336;DHT22;31365;48.858;8.530;2023-02-11T11:01:53;9.50;99.90
46336;DHT22;31365;48.858;8.530;2023-02-11T11:04:37;9.80;99.90
46336;DHT22;31365;48.858;8.530;2023-02-11T11:07:20;10.00;99.90
46336;DHT22;31365;48.858;8.530;2023-02-11T11:09:52;10.10;99.90
46336;DHT22;31365;48.858;8.530;2023-02-11T11:12:27;10.30;99.90
46336;DHT22;31365;48.858;8.530;2023-02-11T11:15:00;10.60;99.90
46336;DHT22;31365;48.858;8.530;2023-02-11T11:17:40;10.90;99.90
46336;DHT22;31365;48.858;8.530;2023-02-11T11:20:21;11.70;99.90
46336;DHT22;31365;48.858;8.530;2023-02-11T11:23:11;12.20;99.90
46336;DHT22;31365;48.858;8.530;2023-02-11T11:25:57;12.80;99.90
46336;DHT22;31365;48.858;8.530;2023-02-11T11:28:30;12.50;99.90
46336;DHT22;31365;48.858;8.530;2023-02-11T11:31:05;11.90;99.90
46336;DHT22;31365;48.858;8.530;2023-02-11T11:33:42;11.50;99.90
46336;DHT22;31365;48.858;8.530;2023-02-11T11:36:14;11.20;99.90
46336;DHT22;31365;48.858;8.530;2023-02-11T11:38:52;11.30;99.90
46336;DHT22;31365;48.858;8.530;2023-02-11T11:41:25;12.10;99.90
46336;DHT22;31365;48.858;8.530;2023-02-11T11:43:59;12.80;99.90
46336;DHT22;31365;48.858;8.530;2023-02-11T11:46:33;13.20;99.90
46336;DHT22;31365;48.858;8.530;2023-02-11T11:49:12;13.20;99.90
46336;DHT22;31365;48.858;8.530;2023-02-11T11:51:56;13.30;99.90
46336;DHT22;31365;48.858;8.530;2023-02-11T11:54:33;13.40;99.90
46336;DHT22;31365;48.858;8.530;2023-02-11T11:57:12;13.80;99.90
46336;DHT22;31365;48.858;8.530;2023-02-11T11:59:44;14.30;99.90
46336;DHT22;31365;48.858;8.530;2023-02-11T12:02:32;14.60;99.90
46336;DHT22;31365;48.858;8.530;2023-02-11T12:05:16;14.80;99.90
46336;DHT22;31365;48.858;8.530;2023-02-11T12:08:02;15.40;99.90
46336;DHT22;31365;48.858;8.530;2023-02-11T12:10:52;15.90;99.90
46336;DHT22;31365;48.858;8.530;2023-02-11T12:16:32;16.50;99.90
46336;DHT22;31365;48.858;8.530;2023-02-11T12:22:36;15.80;99.90
46336;DHT22;31365;48.858;8.530;2023-02-11T12:25:26;16.50;99.90
46336;DHT22;31365;48.858;8.530;2023-02-11T12:28:18;17.20;99.90
46336;DHT22;31365;48.858;8.530;2023-02-11T12:31:16;17.40;99.90
46336;DHT22;31365;48.858;8.530;2023-02-11T12:34:07;17.20;99.90
46336;DHT22;31365;48.858;8.530;2023-02-11T12:36:59;16.70;99.90
46336;DHT22;31365;48.858;8.530;2023-02-11T12:39:42;17.00;99.60
46336;DHT22;31365;48.858;8.530;2023-02-11T12:42:30;17.00;99.30
46336;DHT22;31365;48.858;8.530;2023-02-11T12:45:59;17.00;98.70
46336;DHT22;31365;48.858;8.530;2023-02-11T12:49:10;17.40;98.70
46336;DHT22;31365;48.858;8.530;2023-02-11T12:52:17;18.40;97.60
46336;DHT22;31365;48.858;8.530;2023-02-11T12:55:00;19.20;95.40
46336;DHT22;31365;48.858;8.530;2023-02-11T12:57:35;19.00;94.90
46336;DHT22;31365;48.858;8.530;2023-02-11T13:00:14;19.10;94.40
46336;DHT22;31365;48.858;8.530;2023-02-11T13:02:53;18.30;94.40
46336;DHT22;31365;48.858;8.530;2023-02-11T13:05:30;17.90;94.80
46336;DHT22;31365;48.858;8.530;2023-02-11T13:08:07;18.20;94.40
46336;DHT22;31365;48.858;8.530;2023-02-11T13:10:42;18.20;93.90
46336;DHT22;31365;48.858;8.530;2023-02-11T13:13:20;18.30;93.80
46336;DHT22;31365;48.858;8.530;2023-02-11T13:15:53;18.60;93.20
46336;DHT22;31365;48.858;8.530;2023-02-11T13:18:43;18.80;92.20
46336;DHT22;31365;48.858;8.530;2023-02-11T13:21:30;18.60;92.20
46336;DHT22;31365;48.858;8.530;2023-02-11T13:24:18;17.10;93.30
46336;DHT22;31365;48.858;8.530;2023-02-11T13:26:58;15.80;95.00
46336;DHT22;31365;48.858;8.530;2023-02-11T13:29:47;15.20;95.80
46336;DHT22;31365;48.858;8.530;2023-02-11T13:33:01;16.10;95.30
46336;DHT22;31365;48.858;8.530;2023-02-11T13:35:35;17.50;93.70
46336;DHT22;31365;48.858;8.530;2023-02-11T13:38:17;18.30;92.20
46336;DHT22;31365;48.858;8.530;2023-02-11T13:41:00;18.40;92.10
46336;DHT22;31365;48.858;8.530;2023-02-11T13:43:32;19.00;91.20
46336;DHT22;31365;48.858;8.530;2023-02-11T13:46:04;18.70;91.20
46336;DHT22;31365;48.858;8.530;2023-02-11T13:48:37;18.60;90.70
46336;DHT22;31365;48.858;8.530;2023-02-11T13:51:15;17.20;91.90
46336;DHT22;31365;48.858;8.530;2023-02-11T13:53:48;16.70;92.50
46336;DHT22;31365;48.858;8.530;2023-02-11T13:56:29;17.40;92.40
46336;DHT22;31365;48.858;8.530;2023-02-11T13:59:01;17.60;91.90
46336;DHT22;31365;48.858;8.530;2023-02-11T14:01:39;18.00;91.90
46336;DHT22;31365;48.858;8.530;2023-02-11T14:04:20;18.60;91.10
46336;DHT22;31365;48.858;8.530;2023-02-11T14:07:25;19.70;90.20
46336;DHT22;31365;48.858;8.530;2023-02-11T14:10:48;20.10;87.30
46336;DHT22;31365;48.858;8.530;2023-02-11T14:13:23;20.40;86.50
46336;DHT22;31365;48.858;8.530;2023-02-11T14:16:03;20.60;85.90
46336;DHT22;31365;48.858;8.530;2023-02-11T14:18:57;21.10;84.70
46336;DHT22;31365;48.858;8.530;2023-02-11T14:21:33;20.70;83.90
46336;DHT22;31365;48.858;8.530;2023-02-11T14:27:36;21.00;82.80
46336;DHT22;31365;48.858;8.530;2023-02-11T14:30:38;21.50;81.80
46336;DHT22;31365;48.858;8.530;2023-02-11T14:33:26;21.80;80.60
46336;DHT22;31365;48.858;8.530;2023-02-11T14:39:45;20.10;82.80
46336;DHT22;31365;48.858;8.530;2023-02-11T14:42:21;20.20;82.70
46336;DHT22;31365;48.858;8.530;2023-02-11T14:44:55;20.40;81.50
46336;DHT22;31365;48.858;8.530;2023-02-11T14:47:35;19.70;83.10
46336;DHT22;31365;48.858;8.530;2023-02-11T14:50:15;19.80;83.00
46336;DHT22;31365;48.858;8.530;2023-02-11T14:52:46;20.20;82.30
46336;DHT22;31365;48.858;8.530;2023-02-11T14:55:26;20.60;81.50
46336;DHT22;31365;48.858;8.530;2023-02-11T14:58:12;20.40;81.20
46336;DHT22;31365;48.858;8.530;2023-02-11T15:00:51;19.30;82.70
46336;DHT22;31365;48.858;8.530;2023-02-11T15:03:27;17.60;86.30
46336;DHT22;31365;48.858;8.530;2023-02-11T15:06:04;16.50;89.40
46336;DHT22;31365;48.858;8.530;2023-02-11T15:08:36;15.40;91.00
46336;DHT22;31365;48.858;8.530;2023-02-11T15:11:11;14.60;92.20
46336;DHT22;31365;48.858;8.530;2023-02-11T15:13:43;13.90;93.10
46336;DHT22;31365;48.858;8.530;2023-02-11T15:16:18;13.50;94.00
46336;DHT22;31365;48.858;8.530;2023-02-11T15:18:51;12.90;94.90
46336;DHT22;31365;48.858;8.530;2023-02-11T15:21:24;12.40;95.80
46336;DHT22;31365;48.858;8.530;2023-02-11T15:24:01;12.10;96.50
46336;DHT22;31365;48.858;8.530;2023-02-11T15:26:32;11.70;97.20
46336;DHT22;31365;48.858;8.530;2023-02-11T15:29:01;11.30;98.10
46336;DHT22;31365;48.858;8.530;2023-02-11T15:31:30;11.10;99.00
46336;DHT22;31365;48.858;8.530;2023-02-11T15:34:06;10.80;99.60
46336;DHT22;31365;48.858;8.530;2023-02-11T15:36:36;10.70;99.90
46336;DHT22;31365;48.858;8.530;2023-02-11T15:39:16;10.40;99.90
46336;DHT22;31365;48.858;8.530;2023-02-11T15:41:45;10.10;99.90
46336;DHT22;31365;48.858;8.530;2023-02-11T15:44:30;10.00;99.90
46336;DHT22;31365;48.858;8.530;2023-02-11T15:47:01;9.90;99.90
46336;DHT22;31365;48.858;8.530;2023-02-11T15:49:36;9.90;99.90
46336;DHT22;31365;48.858;8.530;2023-02-11T15:52:12;9.80;99.90
46336;DHT22;31365;48.858;8.530;2023-02-11T15:54:49;9.80;99.90
46336;DHT22;31365;48.858;8.530;2023-02-11T15:57:19;9.70;99.90
46336;DHT22;31365;48.858;8.530;2023-02-11T15:59:52;9.60;99.90
46336;DHT22;31365;48.858;8.530;2023-02-11T16:02:25;9.50;99.90
46336;DHT22;31365;48.858;8.530;2023-02-11T16:05:00;9.40;99.90
46336;DHT22;31365;48.858;8.530;2023-02-11T16:07:42;9.40;99.90
46336;DHT22;31365;48.858;8.530;2023-02-11T16:10:19;9.40;99.90
46336;DHT22;31365;48.858;8.530;2023-02-11T16:12:57;9.30;99.90
46336;DHT22;31365;48.858;8.530;2023-02-11T16:15:42;9.30;99.90
46336;DHT22;31365;48.858;8.530;2023-02-11T16:18:25;9.30;99.90
46336;DHT22;31365;48.858;8.530;2023-02-11T16:21:10;9.20;99.90
46336;DHT22;31365;48.858;8.530;2023-02-11T16:23:42;9.10;99.90
46336;DHT22;31365;48.858;8.530;2023-02-11T16:26:25;9.00;99.90
46336;DHT22;31365;48.858;8.530;2023-02-11T16:29:05;9.10;99.90
46336;DHT22;31365;48.858;8.530;2023-02-11T16:31:39;9.10;99.90
46336;DHT22;31365;48.858;8.530;2023-02-11T16:34:14;9.00;99.90
46336;DHT22;31365;48.858;8.530;2023-02-11T16:36:44;8.90;99.90
46336;DHT22;31365;48.858;8.530;2023-02-11T16:39:12;8.90;99.90
46336;DHT22;31365;48.858;8.530;2023-02-11T16:41:42;8.90;99.90
46336;DHT22;31365;48.858;8.530;2023-02-11T16:44:11;9.00;99.90
46336;DHT22;31365;48.858;8.530;2023-02-11T16:46:40;8.90;99.90
46336;DHT22;31365;48.858;8.530;2023-02-11T16:49:11;8.90;99.90
46336;DHT22;31365;48.858;8.530;2023-02-11T16:51:47;8.80;99.90
46336;DHT22;31365;48.858;8.530;2023-02-11T16:54:17;8.80;99.90
46336;DHT22;31365;48.858;8.530;2023-02-11T16:56:46;8.70;99.90
46336;DHT22;31365;48.858;8.530;2023-02-11T16:59:15;8.70;99.90
46336;DHT22;31365;48.858;8.530;2023-02-11T17:01:45;8.60;99.90
46336;DHT22;31365;48.858;8.530;2023-02-11T17:04:18;8.60;99.90
46336;DHT22;31365;48.858;8.530;2023-02-11T17:06:50;8.50;99.90
46336;DHT22;31365;48.858;8.530;2023-02-11T17:09:21;8.50;99.90
46336;DHT22;31365;48.858;8.530;2023-02-11T17:11:54;8.50;99.90
46336;DHT22;31365;48.858;8.530;2023-02-11T17:14:22;8.40;99.90
46336;DHT22;31365;48.858;8.530;2023-02-11T17:16:52;8.40;99.90
46336;DHT22;31365;48.858;8.530;2023-02-11T17:19:20;8.40;99.90
46336;DHT22;31365;48.858;8.530;2023-02-11T17:21:50;8.30;99.90
46336;DHT22;31365;48.858;8.530;2023-02-11T17:24:20;8.30;99.90
46336;DHT22;31365;48.858;8.530;2023-02-11T17:26:49;8.30;99.90
46336;DHT22;31365;48.858;8.530;2023-02-11T17:29:20;8.20;99.90
46336;DHT22;31365;48.858;8.530;2023-02-11T17:31:51;8.20;99.90
46336;DHT22;31365;48.858;8.530;2023-02-11T17:34:21;8.20;99.90